• Join FlightAware (Why Join?)
  • Login
  • US Flag 
04:15AM EDT


 

Airport Tracker/Info


-or-


 

Live Flight TrackerFlight Track Log ✈ N806UA ✈ 29-Apr-2012 ✈ KDEN - KDFW

Flight Track Log - Related Links

Times and Time Zones

All times are in EDT time to prevent confusion due to time zone crossing. See the N806UA flight status page for this flight to view local times or setup timezone preferences in your user account.

Time Position Orientation Groundspeed Altitude Reporting Facility
EDT Latitude Longitude Course Direction KTS MPH feet Rate Location/Type
01:08PM 39.8364 -104.6599 73° East  Level FlightAware Approximate
01:09PM 39.8667 -104.5333 108° East 228 262 7,800  Level Denver TRACON
01:10PM 39.8500 -104.4667 155° Southeast 276 318 9,600 2,760 Climbing Denver TRACON
01:11PM 39.7667 -104.4167 206° Southwest 295 339 13,300 2,580 Climbing Denver TRACON
01:13PM 39.6339 -104.5017 206° Southwest 319 367 17,200 2,160 Climbing Denver Center
01:14PM 39.5428 -104.5581 177° South 354 407 19,600 2,040 Climbing Denver Center
01:15PM 39.4386 -104.5514 167° South 377 434 21,500 1,800 Climbing Denver Center
01:16PM 39.3261 -104.5178 165° South 404 465 23,400 1,200 Climbing Denver Center
01:17PM 39.1967 -104.4742 160° South 403 464 24,000 240 Climbing Denver Center
01:18PM 39.1003 -104.4278 160° South 406 467 24,000 720 Level Denver Center
01:19PM 38.9792 -104.3714 161° South 412 474 25,500 960 Climbing Denver Center
01:20PM 38.8558 -104.3161 160° South 417 480 26,000 240 Climbing Denver Center
01:21PM 38.7500 -104.2672 159° South 420 483 26,000 720 Level Denver Center
01:22PM 38.6269 -104.2081 140° Southeast 422 486 27,600 1,380 Climbing Denver Center
01:23PM 38.5350 -104.1086 141° Southeast 448 516 28,900 1,200 Climbing Denver Center
01:24PM 38.4247 -103.9956 140° Southeast 454 522 30,200 1,200 Climbing Denver Center
01:25PM 38.3289 -103.8939 141° Southeast 462 532 31,500 1,380 Climbing Denver Center
01:26PM 38.2167 -103.7778 141° Southeast 464 534 33,100 1,320 Climbing Denver Center
01:27PM 38.1208 -103.6792 141° Southeast 461 531 34,300 1,260 Climbing Denver Center
01:28PM 38.0106 -103.5650 141° Southeast 457 526 35,800 1,200 Climbing Denver Center
01:29PM 37.9161 -103.4678 141° Southeast 455 524 36,900 900 Climbing Denver Center
01:30PM 37.8053 -103.3550 141° Southeast 454 522 37,700 660 Climbing Denver Center
01:32PM 37.7103 -103.2575 141° Southeast 456 525 38,300 540 Climbing Denver Center
01:33PM 37.5989 -103.1436 141° Southeast 458 527 38,900 300 Climbing Denver Center
01:34PM 37.5019 -103.0461 134° Southeast 461 531 39,000  Climbing Denver Center
01:35PM 37.4000 -102.9122 131° Southeast 475 547 39,000 -60 Level Denver Center
01:36PM 37.3186 -102.7944 132° Southeast 467 537 38,900 -60 Descending Denver Center
01:37PM 37.2228 -102.6600 132° Southeast 462 532 38,900  Level Denver Center
01:38PM 37.1131 -102.5056 131° Southeast 465 535 39,000  Climbing Albuquerque Center
01:39PM 37.0183 -102.3711 132° Southeast 465 535 39,000  Level Albuquerque Center
01:40PM 36.9217 -102.2350 132° Southeast 468 539 39,000  Level Albuquerque Center
01:41PM 36.8375 -102.1194 132° Southeast 469 540 39,000  Level Albuquerque Center
01:42PM 36.7394 -101.9833 132° Southeast 473 544 39,000  Level Albuquerque Center
01:43PM 36.6547 -101.8664 132° Southeast 474 545 39,000  Level Albuquerque Center
01:44PM 36.5628 -101.7400 132° Southeast 473 544 39,000  Level Albuquerque Center
01:45PM 36.4742 -101.6194 132° Southeast 472 543 39,000  Level Albuquerque Center
01:46PM 36.3747 -101.4831 132° Southeast 471 542 39,000  Level Albuquerque Center
01:48PM 36.2811 -101.3558 132° Southeast 468 539 39,000  Level Albuquerque Center
01:49PM 36.2028 -101.2489 132° Southeast 467 537 39,000  Level Albuquerque Center
01:50PM 36.1161 -101.1311 133° Southeast 464 534 39,000  Level Albuquerque Center
01:51PM 36.0119 -100.9911 133° Southeast 462 532 39,000  Level Albuquerque Center
01:52PM 35.9253 -100.8744 133° Southeast 461 531 39,000  Level Albuquerque Center
01:53PM 35.8392 -100.7592 133° Southeast 459 528 39,000  Level Albuquerque Center
01:54PM 35.7519 -100.6433 133° Southeast 460 529 39,000  Level Albuquerque Center
01:55PM 35.6656 -100.5289 133° Southeast 458 527 39,000  Level Albuquerque Center
01:56PM 35.5617 -100.3914 133° Southeast 458 527 39,000  Level Albuquerque Center
01:57PM 35.4767 -100.2789 133° Southeast 455 524 39,000  Level Albuquerque Center
01:58PM 35.3922 -100.1672 134° Southeast 451 519 39,000  Level Albuquerque Center
01:59PM 35.3061 -100.0567 133° Southeast 449 517 39,000  Level Albuquerque Center
02:00PM 35.2208 -99.9453 133° Southeast 448 516 39,000  Level Albuquerque Center
02:01PM 35.1142 -99.8069 135° Southeast 449 517 39,000  Level Fort Worth Center
02:02PM 35.0264 -99.7006 133° Southeast 449 517 39,000  Level Fort Worth Center
02:03PM 34.9369 -99.5842 133° Southeast 454 522 39,000  Level Fort Worth Center
02:04PM 34.8531 -99.4731 133° Southeast 454 522 39,000  Level Fort Worth Center
02:05PM 34.7633 -99.3572 133° Southeast 454 522 39,000  Level Fort Worth Center
02:06PM 34.6753 -99.2417 134° Southeast 460 529 39,000  Level Fort Worth Center
02:07PM 34.5872 -99.1314 133° Southeast 460 529 39,000 -720 Level Fort Worth Center
02:08PM 34.4989 -99.0161 134° Southeast 460 529 37,600 -1,500 Descending Fort Worth Center
02:09PM 34.4106 -98.9061 134° Southeast 460 529 36,100 -1,620 Descending Fort Worth Center
02:10PM 34.3200 -98.7939 134° Southeast 460 529 34,400 1,440 Descending Fort Worth Center
02:11PM 34.2314 -98.6844 132° Southeast 460 529 39,000 -2,040 Climbing Fort Worth Center
02:12PM 34.1450 -98.5703 137° Southeast 460 529 30,400 -5,400 Descending Fort Worth Center
02:13PM 34.0542 -98.4664 134° Southeast 460 529 28,200 -2,400 Descending Fort Worth Center
02:14PM 33.9653 -98.3550 134° Southeast 460 529 25,700 -2,400 Descending Fort Worth Center
02:15PM 33.8806 -98.2492 135° Southeast 454 522 23,400 -2,400 Descending Fort Worth Center
02:16PM 33.7956 -98.1458 134° Southeast 441 507 21,000 -2,280 Descending Fort Worth Center
02:17PM 33.7167 -98.0478 134° Southeast 419 482 18,900 -2,040 Descending Fort Worth Center
02:18PM 33.6400 -97.9525 134° Southeast 399 459 17,000 -1,800 Descending Fort Worth Center
02:19PM 33.5694 -97.8647 135° Southeast 376 433 15,300 -2,040 Descending Fort Worth Center
02:20PM 33.4986 -97.7797 136° Southeast 366 421 13,000 -2,040 Descending Fort Worth Center
02:21PM 33.4342 -97.7047 134° Southeast 359 413 11,300 -1,380 Descending Fort Worth Center
02:22PM 33.3675 -97.6225 134° Southeast 325 374 10,300 -1,440 Descending Fort Worth Center
02:23PM 33.3092 -97.5500 133° Southeast 308 354 8,500 -1,620 Descending Fort Worth Center
02:24PM 33.2614 -97.4881 135° Southeast 296 341 7,100 -1,560 Descending Fort Worth Center
02:25PM 33.2008 -97.4158 133° Southeast 290 334 5,400 -1,140 Descending Fort Worth Center
02:26PM 33.1506 -97.3514 135° Southeast 275 316 4,900 -780 Descending Fort Worth Center
02:27PM 33.0983 -97.2894 134° Southeast 270 311 3,900 -960 Descending Fort Worth Center
02:28PM 33.0525 -97.2325 141° Southeast 247 284 3,000 -480 Descending Fort Worth Center
02:29PM 33.0086 -97.1906 141° Southeast 216 249 3,000  Level Fort Worth Center